Terminal Aerodrome Forecast
Issued by NWS Greer, SC

Home | Current Version | Previous Version | Text Only | Print | Product List | Glossary On
Versions: 1 2 3 4 5 6 7 8 9 10 11 12 13 14 15 16 17 18 19 20 21 22
000
FTUS42 KGSP 260500
TAFGSP
TAF
KGSP 260535Z 2606/2706 21004KT P6SM FEW120 BKN250
     FM260900 00000KT 6SM BR SCT120 BKN250
     FM261300 24004KT P6SM FEW120 BKN250
     FM261800 22006KT P6SM SCT060 BKN250
     FM270300 24004KT P6SM SCT120 BKN250=

USA.gov is the U.S. government's official web portal to all federal, state and local government web resources and services.